Time;durP1;ratioP1;P1;durP2;ratioP2;P2;SDS_P1;SDS_P2;PMS_P1;PMS_P2;Temp;Humidity;BMP_temperature;BMP_pressure;BME280_temperature;BME280_humidity;BME280_pressure;Samples;Min_cycle;Max_cycle;Signal;HPM_P1;HPM_P2
2024/03/29 01:44:41;;;;;;;0.30;0.17;;;8.90;99.90;;;;;;5114395;28;20510;-53
2024/03/29 01:47:08;;;;;;;0.37;0.10;;;8.90;99.90;;;;;;5117055;28;20509;-49
2024/03/29 01:49:35;;;;;;;0.20;0.10;;;8.90;99.90;;;;;;5124049;27;20445;-49
2024/03/29 01:52:03;;;;;;;0.30;0.20;;;8.90;99.90;;;;;;5115905;28;20484;-49
2024/03/29 01:54:30;;;;;;;7.77;0.30;;;8.90;99.90;;;;;;5116649;28;20452;-50
2024/03/29 01:56:58;;;;;;;0.30;0.20;;;8.90;99.90;;;;;;5116657;28;20456;-50
2024/03/29 01:59:27;;;;;;;0.60;0.30;;;9.00;99.90;;;;;;5116305;28;20463;-54
2024/03/29 02:01:55;;;;;;;0.30;0.10;;;9.00;99.90;;;;;;5124574;28;20452;-52
2024/03/29 02:04:23;;;;;;;0.40;0.10;;;9.10;99.90;;;;;;5130502;28;20780;-51
2024/03/29 02:06:50;;;;;;;0.80;0.20;;;9.10;99.90;;;;;;5115902;28;20870;-54
2024/03/29 02:09:17;;;;;;;0.50;0.20;;;9.10;99.90;;;;;;5135118;28;20533;-53
2024/03/29 02:11:44;;;;;;;1.00;0.10;;;9.10;99.90;;;;;;5128268;28;20533;-53
2024/03/29 02:14:11;;;;;;;0.40;0.20;;;9.10;99.90;;;;;;5115376;28;20505;-50
2024/03/29 02:16:38;;;;;;;0.43;0.10;;;9.10;99.90;;;;;;5129360;28;20448;-55
2024/03/29 02:19:06;;;;;;;0.33;0.10;;;9.10;99.90;;;;;;5136628;28;20807;-55
2024/03/29 02:21:37;;;;;;;0.47;0.10;;;9.10;99.90;;;;;;5136615;28;20455;-53
2024/03/29 02:24:08;;;;;;;0.80;0.10;;;9.10;99.90;;;;;;5137335;28;20534;-55
2024/03/29 02:26:38;;;;;;;0.40;0.20;;;9.10;99.90;;;;;;5136986;28;20791;-56
2024/03/29 02:29:05;;;;;;;0.40;0.20;;;9.10;99.90;;;;;;5136313;28;20534;-54
2024/03/29 02:31:32;;;;;;;0.30;0.20;;;9.10;99.90;;;;;;5136643;28;20501;-55
2024/03/29 02:33:59;;;;;;;0.20;0.10;;;9.20;99.90;;;;;;5132649;28;20559;-53
2024/03/29 02:36:26;;;;;;;0.30;0.13;;;9.20;99.90;;;;;;5136646;28;20853;-52
2024/03/29 02:38:53;;;;;;;0.30;0.10;;;9.20;99.90;;;;;;5138054;27;20727;-52
2024/03/29 02:41:23;;;;;;;0.67;0.10;;;9.20;99.90;;;;;;5131229;27;20502;-54
2024/03/29 02:43:50;;;;;;;0.30;0.10;;;9.30;99.90;;;;;;5119890;28;20900;-52
2024/03/29 02:46:16;;;;;;;0.20;0.10;;;9.30;99.90;;;;;;5119969;28;20440;-53
2024/03/29 02:48:43;;;;;;;0.30;0.10;;;9.40;99.90;;;;;;5120493;28;20907;-51
2024/03/29 02:51:09;;;;;;;0.70;0.10;;;9.30;99.90;;;;;;5119783;28;20448;-55
2024/03/29 02:53:35;;;;;;;0.40;0.20;;;9.20;99.90;;;;;;5119886;28;20716;-56
2024/03/29 02:56:02;;;;;;;0.30;0.10;;;9.20;99.90;;;;;;5120384;28;20776;-54
2024/03/29 02:58:30;;;;;;;0.30;0.10;;;9.20;99.90;;;;;;5119861;28;20472;-55
2024/03/29 03:00:56;;;;;;;0.40;0.10;;;9.30;99.90;;;;;;5121941;27;20504;-55
2024/03/29 03:03:27;;;;;;;0.50;0.10;;;9.30;99.90;;;;;;5139478;27;20431;-54
2024/03/29 03:05:54;;;;;;;1.17;0.10;;;9.20;99.90;;;;;;5139322;27;20500;-53
2024/03/29 03:11:05;;;;;;;0.30;0.10;;;9.30;99.90;;;;;;5108921;28;20486;-51
2024/03/29 03:13:34;;;;;;;0.37;0.10;;;9.30;99.90;;;;;;5100241;28;20485;-52
2024/03/29 03:16:01;;;;;;;0.80;0.10;;;9.30;99.90;;;;;;5101710;28;20733;-55
2024/03/29 03:18:28;;;;;;;0.30;0.10;;;9.30;99.90;;;;;;5103113;28;20507;-55
2024/03/29 03:20:54;;;;;;;0.33;0.10;;;9.30;99.90;;;;;;5101389;28;20554;-51
2024/03/29 03:23:21;;;;;;;0.30;0.10;;;9.30;99.90;;;;;;5109098;28;20709;-55
2024/03/29 03:25:54;;;;;;;0.53;0.10;;;9.40;99.90;;;;;;5104470;28;20514;-53
2024/03/29 03:28:21;;;;;;;0.30;0.10;;;9.30;99.90;;;;;;5103353;28;20477;-51
2024/03/29 03:30:49;;;;;;;0.30;0.10;;;9.30;99.90;;;;;;5103209;28;20452;-54
2024/03/29 03:33:19;;;;;;;0.30;0.10;;;9.40;99.90;;;;;;5105037;28;20473;-54
2024/03/29 03:35:46;;;;;;;0.30;0.10;;;9.40;99.90;;;;;;5110193;28;20438;-55
2024/03/29 03:38:13;;;;;;;0.30;0.10;;;9.50;99.90;;;;;;5107263;28;20519;-53
2024/03/29 03:40:39;;;;;;;0.20;0.10;;;9.50;99.90;;;;;;5096465;28;20445;-54
2024/03/29 03:43:07;;;;;;;0.30;0.20;;;9.50;99.90;;;;;;5102525;28;20437;-54
2024/03/29 03:45:37;;;;;;;0.20;0.10;;;9.50;99.90;;;;;;5101156;28;20445;-54
2024/03/29 03:48:07;;;;;;;0.37;0.10;;;9.60;99.90;;;;;;5099291;28;20777;-52
2024/03/29 03:50:33;;;;;;;0.30;0.10;;;9.60;99.90;;;;;;5101787;28;20506;-52
2024/03/29 03:53:00;;;;;;;0.30;0.10;;;9.60;99.90;;;;;;5106845;28;20502;-52
2024/03/29 03:55:27;;;;;;;2.53;0.10;;;9.60;99.90;;;;;;5100678;28;20468;-52
2024/03/29 03:57:54;;;;;;;0.40;0.10;;;9.60;99.90;;;;;;5106704;28;20440;-55
2024/03/29 04:00:21;;;;;;;1.23;0.10;;;9.60;99.90;;;;;;5107152;28;20445;-55
2024/03/29 04:02:49;;;;;;;0.30;0.10;;;9.60;99.90;;;;;;5116703;28;20690;-55
2024/03/29 04:05:17;;;;;;;0.20;0.10;;;9.60;99.90;;;;;;5118244;28;20496;-57
2024/03/29 04:07:44;;;;;;;0.30;0.10;;;9.60;99.90;;;;;;5116479;28;20455;-57
2024/03/29 04:10:10;;;;;;;0.57;0.17;;;9.60;99.90;;;;;;5121317;27;20540;-55
2024/03/29 04:12:38;;;;;;;1.63;0.10;;;9.60;99.90;;;;;;5131546;27;20475;-56
2024/03/29 04:15:05;;;;;;;0.30;0.10;;;9.60;99.90;;;;;;5128015;27;20448;-54
2024/03/29 04:17:32;;;;;;;0.40;0.10;;;9.70;99.90;;;;;;5129190;27;20444;-54
2024/03/29 04:19:59;;;;;;;0.30;0.20;;;9.70;99.90;;;;;;5124360;27;20452;-55
2024/03/29 04:22:29;;;;;;;0.30;0.10;;;9.70;99.90;;;;;;5134469;27;20463;-52
2024/03/29 04:24:55;;;;;;;0.40;0.20;;;9.70;99.90;;;;;;5138838;27;20869;-56
2024/03/29 04:27:22;;;;;;;0.40;0.20;;;9.70;99.90;;;;;;5137700;27;20492;-54
2024/03/29 04:29:51;;;;;;;0.30;0.10;;;9.80;99.90;;;;;;5137880;27;20439;-55
2024/03/29 04:32:18;;;;;;;0.30;0.10;;;9.80;99.90;;;;;;5138122;27;20471;-53
2024/03/29 04:34:47;;;;;;;0.30;0.17;;;9.80;99.90;;;;;;5137961;27;20926;-56
2024/03/29 04:37:14;;;;;;;0.30;0.10;;;9.80;99.90;;;;;;5137065;27;20444;-55
2024/03/29 04:39:43;;;;;;;0.30;0.10;;;9.70;99.90;;;;;;5136825;27;20456;-55
2024/03/29 04:42:09;;;;;;;0.20;0.10;;;9.80;99.90;;;;;;5137211;27;20428;-57
2024/03/29 04:44:36;;;;;;;0.30;0.10;;;9.80;99.90;;;;;;5138221;27;20500;-52
2024/03/29 04:47:04;;;;;;;0.30;0.10;;;9.80;99.90;;;;;;5137937;27;20439;-55
2024/03/29 04:49:34;;;;;;;0.27;0.10;;;9.90;99.90;;;;;;5137522;27;20513;-54
2024/03/29 04:52:01;;;;;;;0.30;0.10;;;9.80;99.90;;;;;;5138250;27;20455;-51
2024/03/29 04:54:28;;;;;;;0.40;0.13;;;9.80;99.90;;;;;;5138244;27;20451;-54
2024/03/29 04:56:56;;;;;;;0.27;0.10;;;9.80;99.90;;;;;;5138105;27;20439;-54
2024/03/29 04:59:23;;;;;;;0.30;0.10;;;9.80;99.90;;;;;;5130817;27;21009;-55
2024/03/29 05:01:52;;;;;;;0.30;0.10;;;9.90;99.90;;;;;;5136891;27;20456;-56
2024/03/29 05:04:25;;;;;;;0.30;0.10;;;9.90;99.90;;;;;;5137212;27;20451;-55
2024/03/29 05:06:52;;;;;;;0.30;0.10;;;9.90;99.90;;;;;;5137093;27;20452;-55
2024/03/29 05:09:19;;;;;;;0.53;0.10;;;9.90;99.90;;;;;;5138247;27;20472;-56
2024/03/29 05:11:47;;;;;;;0.30;0.10;;;9.90;99.90;;;;;;5138675;27;20440;-53
2024/03/29 05:14:16;;;;;;;1.20;0.10;;;9.90;99.90;;;;;;5137710;27;20487;-56
2024/03/29 05:16:43;;;;;;;0.40;0.10;;;9.90;99.90;;;;;;5136474;27;20500;-55
2024/03/29 05:19:10;;;;;;;0.30;0.10;;;9.90;99.90;;;;;;5137283;27;20542;-55
2024/03/29 05:21:37;;;;;;;0.30;0.10;;;9.90;99.90;;;;;;5136244;27;20505;-56
2024/03/29 05:24:05;;;;;;;0.50;0.10;;;9.90;99.90;;;;;;5135761;27;20445;-56
2024/03/29 05:26:32;;;;;;;0.33;0.10;;;9.90;99.90;;;;;;5137096;27;20440;-52
2024/03/29 05:28:59;;;;;;;0.20;0.10;;;9.90;99.90;;;;;;5136774;27;20504;-57
2024/03/29 05:31:28;;;;;;;0.20;0.10;;;9.90;99.90;;;;;;5136203;27;20857;-56
2024/03/29 05:33:55;;;;;;;0.30;0.10;;;9.90;99.90;;;;;;5137260;27;20950;-56
2024/03/29 05:36:22;;;;;;;0.40;0.20;;;9.90;99.90;;;;;;5137302;27;20868;-56
2024/03/29 05:38:49;;;;;;;0.20;0.10;;;9.90;99.90;;;;;;5137823;27;20513;-56
2024/03/29 05:41:16;;;;;;;0.20;0.10;;;10.00;99.90;;;;;;5137003;27;20452;-55
2024/03/29 05:43:43;;;;;;;0.40;0.10;;;9.90;99.90;;;;;;5137990;27;20448;-57
2024/03/29 05:46:10;;;;;;;0.30;0.10;;;10.00;99.90;;;;;;5137947;27;20862;-56
2024/03/29 05:48:39;;;;;;;0.30;0.10;;;9.90;99.90;;;;;;5137724;27;20460;-54
2024/03/29 05:51:06;;;;;;;0.30;0.10;;;9.90;99.90;;;;;;5138076;27;20585;-56
2024/03/29 05:53:33;;;;;;;0.30;0.10;;;10.00;99.90;;;;;;5136843;27;20484;-54
2024/03/29 05:55:59;;;;;;;0.30;0.10;;;10.00;99.90;;;;;;5137059;27;20564;-56
2024/03/29 05:58:26;;;;;;;0.30;0.10;;;10.00;99.90;;;;;;5138203;27;20452;-56
2024/03/29 06:00:53;;;;;;;0.30;0.10;;;10.00;99.90;;;;;;5129278;28;20900;-56
2024/03/29 06:03:20;;;;;;;0.60;0.10;;;10.00;99.90;;;;;;5127970;28;20498;-56
2024/03/29 06:05:49;;;;;;;0.30;0.10;;;10.00;99.90;;;;;;5125233;28;20765;-56
2024/03/29 06:08:16;;;;;;;0.40;0.10;;;10.00;99.90;;;;;;5124289;28;20444;-53
2024/03/29 06:10:43;;;;;;;0.40;0.10;;;10.00;99.90;;;;;;5125333;28;20472;-54
2024/03/29 06:13:27;;;;;;;0.30;0.10;;;10.10;99.90;;;;;;5129238;27;20476;-55
2024/03/29 06:18:39;;;;;;;0.33;0.10;;;10.20;99.90;;;;;;5129175;27;20424;-56
2024/03/29 06:21:07;;;;;;;0.30;0.10;;;10.20;99.90;;;;;;5131923;27;20470;-54
2024/03/29 06:23:34;;;;;;;0.20;0.10;;;10.30;99.90;;;;;;5128655;27;20448;-54
2024/03/29 06:26:01;;;;;;;0.40;0.10;;;10.30;99.90;;;;;;5130375;27;20534;-57
2024/03/29 06:28:28;;;;;;;0.20;0.10;;;10.30;99.90;;;;;;5132055;27;20527;-58
2024/03/29 06:30:54;;;;;;;0.20;0.10;;;10.40;99.90;;;;;;5135995;27;20504;-58
2024/03/29 06:33:21;;;;;;;0.30;0.10;;;10.50;99.90;;;;;;5130765;27;20463;-58
2024/03/29 06:35:54;;;;;;;0.30;0.10;;;10.60;99.90;;;;;;5130495;27;20857;-57
2024/03/29 06:38:23;;;;;;;0.47;0.17;;;10.60;99.90;;;;;;5132686;27;20724;-54
2024/03/29 06:40:50;;;;;;;0.30;0.10;;;10.70;99.90;;;;;;5128626;27;20432;-56
2024/03/29 06:43:17;;;;;;;0.30;0.10;;;10.80;99.90;;;;;;5130507;27;20439;-57
2024/03/29 06:45:44;;;;;;;0.30;0.10;;;10.90;99.90;;;;;;5127360;27;20448;-57
2024/03/29 06:48:11;;;;;;;0.30;0.10;;;10.90;99.90;;;;;;5128429;27;20440;-57
2024/03/29 06:50:40;;;;;;;0.30;0.13;;;10.90;99.90;;;;;;5130366;27;20440;-57
2024/03/29 06:53:08;;;;;;;0.20;0.10;;;10.90;99.90;;;;;;5129505;27;20945;-58
2024/03/29 06:55:37;;;;;;;0.90;0.20;;;10.90;99.90;;;;;;5128828;27;20772;-57
2024/03/29 06:58:05;;;;;;;0.30;0.10;;;11.00;99.90;;;;;;5129669;27;20493;-57
2024/03/29 07:00:32;;;;;;;0.30;0.10;;;11.00;99.90;;;;;;5129335;27;20552;-58
2024/03/29 07:02:59;;;;;;;0.40;0.10;;;11.10;99.90;;;;;;5130286;27;20441;-58
2024/03/29 07:05:26;;;;;;;0.40;0.10;;;11.20;99.90;;;;;;5132563;27;20446;-58
2024/03/29 07:07:54;;;;;;;0.30;0.10;;;11.20;99.90;;;;;;5129059;27;20445;-58
2024/03/29 07:10:21;;;;;;;0.30;0.10;;;11.20;99.90;;;;;;5129114;27;20471;-58
2024/03/29 07:12:49;;;;;;;0.30;0.10;;;11.30;99.90;;;;;;5129709;27;20490;-58
2024/03/29 07:15:16;;;;;;;0.20;0.10;;;11.30;99.90;;;;;;5124534;27;20433;-60
2024/03/29 07:17:44;;;;;;;0.30;0.10;;;11.20;99.90;;;;;;5124854;27;20432;-58
2024/03/29 07:20:11;;;;;;;0.37;0.20;;;11.10;99.90;;;;;;5129060;27;20542;-57
2024/03/29 07:22:38;;;;;;;0.40;0.10;;;11.00;99.90;;;;;;5128205;27;20454;-58
2024/03/29 07:25:06;;;;;;;0.47;0.10;;;11.00;99.90;;;;;;5129121;27;20509;-58
2024/03/29 07:27:35;;;;;;;0.40;0.10;;;10.90;99.90;;;;;;5128082;27;20509;-57
2024/03/29 07:30:04;;;;;;;0.30;0.10;;;10.90;99.90;;;;;;5128336;27;20429;-58
2024/03/29 07:32:32;;;;;;;0.30;0.10;;;10.80;99.90;;;;;;5126817;27;20728;-57
2024/03/29 07:34:59;;;;;;;0.77;0.13;;;10.70;99.90;;;;;;5126057;27;20483;-57
2024/03/29 07:37:26;;;;;;;0.40;0.20;;;10.70;99.90;;;;;;5128834;27;20724;-57
2024/03/29 07:39:53;;;;;;;0.30;0.17;;;10.60;99.90;;;;;;5127686;27;20505;-57
2024/03/29 07:42:20;;;;;;;0.47;0.20;;;10.40;99.90;;;;;;5127140;27;20594;-58
2024/03/29 07:44:47;;;;;;;0.30;0.10;;;10.20;99.90;;;;;;5128610;27;20424;-57
2024/03/29 07:47:16;;;;;;;0.40;0.20;;;9.90;1.00;;;;;;5128007;27;20506;-58
2024/03/29 07:49:43;;;;;;;0.60;0.20;;;9.60;1.00;;;;;;5127150;27;20452;-57
2024/03/29 07:52:10;;;;;;;0.30;0.10;;;9.40;1.00;;;;;;5128745;27;20439;-58
2024/03/29 07:54:38;;;;;;;0.30;0.10;;;9.30;1.00;;;;;;5127975;27;20480;-58
2024/03/29 07:57:08;;;;;;;0.40;0.13;;;9.20;1.00;;;;;;5129502;27;20500;-58
2024/03/29 07:59:35;;;;;;;0.30;0.10;;;9.10;99.90;;;;;;5130610;27;20444;-58
2024/03/29 08:02:02;;;;;;;0.30;0.10;;;9.10;1.00;;;;;;5135567;27;20896;-58
2024/03/29 08:04:30;;;;;;;0.30;0.10;;;9.20;99.90;;;;;;5128727;27;20451;-58
2024/03/29 08:06:57;;;;;;;0.40;0.10;;;9.20;99.90;;;;;;5132521;27;20441;-58
2024/03/29 08:09:25;;;;;;;0.30;0.10;;;9.20;1.00;;;;;;5129519;27;20558;-58
2024/03/29 08:11:51;;;;;;;0.40;0.10;;;9.10;99.90;;;;;;5128108;27;20863;-57
2024/03/29 08:14:18;;;;;;;0.40;0.20;;;9.20;1.00;;;;;;5128460;27;20529;-57
2024/03/29 08:16:45;;;;;;;0.60;0.20;;;9.30;1.00;;;;;;5129526;27;20439;-57
2024/03/29 08:19:12;;;;;;;0.50;0.10;;;9.30;1.00;;;;;;5128538;27;20445;-57
2024/03/29 08:21:41;;;;;;;0.33;0.17;;;9.30;99.90;;;;;;5128290;27;20841;-56
2024/03/29 08:24:08;;;;;;;0.30;0.10;;;9.20;1.00;;;;;;5128265;27;20496;-57
2024/03/29 08:26:35;;;;;;;0.40;0.20;;;9.30;1.00;;;;;;5129018;27;20444;-56
2024/03/29 08:29:02;;;;;;;0.30;0.10;;;9.20;99.90;;;;;;5125632;27;20504;-57
2024/03/29 08:31:29;;;;;;;0.30;0.10;;;9.20;99.90;;;;;;5128236;27;20553;-56
2024/03/29 08:33:56;;;;;;;1.83;0.10;;;9.20;1.00;;;;;;5127497;27;20534;-56
2024/03/29 08:36:23;;;;;;;0.30;0.10;;;9.20;1.00;;;;;;5125262;27;20467;-56
2024/03/29 08:38:51;;;;;;;0.30;0.10;;;9.30;1.00;;;;;;5126758;27;20506;-57
2024/03/29 08:41:18;;;;;;;0.40;0.10;;;9.30;1.00;;;;;;5126253;27;20443;-56
2024/03/29 08:43:45;;;;;;;0.93;0.17;;;9.30;1.00;;;;;;5127116;27;20447;-57
2024/03/29 08:46:13;;;;;;;0.30;0.10;;;9.40;1.00;;;;;;5126999;27;20508;-56
2024/03/29 08:48:43;;;;;;;0.33;0.10;;;9.50;1.00;;;;;;5127407;27;20451;-56
2024/03/29 08:51:10;;;;;;;0.30;0.10;;;9.40;1.00;;;;;;5126342;27;20467;-57
2024/03/29 08:53:37;;;;;;;0.40;0.20;;;9.30;1.00;;;;;;5128698;27;20761;-55
2024/03/29 08:56:06;;;;;;;0.83;0.20;;;9.30;20.30;;;;;;5127556;27;20881;-56
2024/03/29 08:58:33;;;;;;;0.30;0.13;;;9.30;42.90;;;;;;5126468;27;20441;-55
2024/03/29 09:01:04;;;;;;;0.50;0.20;;;9.20;66.70;;;;;;5136581;27;20497;-55
2024/03/29 09:03:31;;;;;;;0.30;0.10;;;9.20;99.80;;;;;;5135605;27;20479;-56
2024/03/29 09:05:58;;;;;;;0.40;0.20;;;9.20;99.90;;;;;;5136840;27;20444;-54
2024/03/29 09:08:25;;;;;;;0.30;0.20;;;9.30;99.90;;;;;;5137146;27;20440;-56
2024/03/29 09:10:52;;;;;;;0.40;0.20;;;9.30;99.90;;;;;;5136731;27;20479;-57
2024/03/29 09:13:20;;;;;;;0.30;0.10;;;9.30;99.90;;;;;;5136557;27;20497;-57
2024/03/29 09:15:47;;;;;;;0.30;0.20;;;9.50;99.90;;;;;;5136230;27;20455;-54
2024/03/29 09:18:23;;;;;;;0.30;0.20;;;9.70;99.90;;;;;;5135273;27;20440;-57
2024/03/29 09:20:57;;;;;;;0.50;0.30;;;9.90;99.90;;;;;;5135239;27;20819;-57
2024/03/29 09:23:25;;;;;;;0.60;0.30;;;10.10;99.90;;;;;;5115678;27;20861;-57
2024/03/29 09:25:52;;;;;;;1.20;0.30;;;10.10;99.90;;;;;;5121695;27;20442;-56
2024/03/29 09:28:21;;;;;;;0.40;0.20;;;10.20;99.90;;;;;;5137222;27;20721;-57
2024/03/29 09:30:48;;;;;;;0.70;0.30;;;10.40;99.90;;;;;;5136582;27;20781;-58
2024/03/29 09:33:15;;;;;;;0.50;0.20;;;10.50;99.90;;;;;;5132402;27;20471;-58
2024/03/29 09:35:43;;;;;;;0.43;0.20;;;10.60;99.90;;;;;;5134459;27;20487;-57
2024/03/29 09:38:10;;;;;;;0.40;0.20;;;10.60;99.90;;;;;;5135758;27;20522;-58
2024/03/29 09:40:38;;;;;;;0.37;0.20;;;10.50;99.90;;;;;;5134223;27;20447;-60
2024/03/29 09:43:05;;;;;;;0.67;0.30;;;10.40;99.90;;;;;;5134254;27;20435;-58
2024/03/29 09:45:36;;;;;;;0.33;0.13;;;10.20;99.90;;;;;;5115501;28;20472;-57
2024/03/29 09:48:06;;;;;;;0.40;0.20;;;10.30;99.90;;;;;;5129097;27;20497;-56
2024/03/29 09:50:35;;;;;;;0.30;0.10;;;10.30;99.90;;;;;;5121748;27;20838;-58
2024/03/29 09:53:03;;;;;;;0.30;0.10;;;10.40;99.90;;;;;;5127759;28;20447;-58
2024/03/29 09:55:30;;;;;;;0.50;0.30;;;10.60;99.90;;;;;;5135880;27;20479;-57
2024/03/29 09:57:59;;;;;;;0.60;0.20;;;10.70;99.90;;;;;;5135358;27;20450;-58
2024/03/29 10:00:29;;;;;;;0.43;0.20;;;10.90;99.90;;;;;;5135465;28;20439;-57
2024/03/29 10:02:58;;;;;;;0.40;0.10;;;10.90;99.90;;;;;;5136811;28;20866;-57
2024/03/29 10:05:27;;;;;;;1.13;0.20;;;11.00;99.90;;;;;;5136128;28;20444;-58
2024/03/29 10:07:54;;;;;;;1.03;0.20;;;11.10;99.90;;;;;;5137161;28;20450;-58
2024/03/29 10:10:21;;;;;;;0.60;0.30;;;11.20;99.90;;;;;;5114943;28;20553;-57
2024/03/29 10:12:49;;;;;;;0.50;0.20;;;11.40;99.90;;;;;;5116449;28;20881;-58
2024/03/29 10:15:18;;;;;;;0.73;0.20;;;11.60;99.90;;;;;;5116279;28;20521;-58
2024/03/29 10:17:48;;;;;;;3.33;0.27;;;11.60;99.90;;;;;;5114686;28;20437;-56
2024/03/29 10:20:18;;;;;;;1.50;0.30;;;11.70;99.90;;;;;;5118928;28;20483;-58
2024/03/29 10:22:46;;;;;;;0.60;0.30;;;11.80;99.90;;;;;;5136003;28;20443;-58
2024/03/29 10:25:14;;;;;;;0.40;0.20;;;12.00;99.90;;;;;;5133401;28;20454;-57
2024/03/29 10:27:41;;;;;;;0.70;0.20;;;12.30;99.90;;;;;;5134494;28;20776;-58
2024/03/29 10:30:10;;;;;;;0.57;0.30;;;12.50;99.90;;;;;;5134469;28;20899;-59
2024/03/29 10:32:39;;;;;;;0.33;0.20;;;12.70;99.90;;;;;;5135000;28;20443;-59
2024/03/29 10:35:08;;;;;;;0.47;0.30;;;12.70;99.90;;;;;;5119231;28;20913;-58
2024/03/29 10:37:38;;;;;;;1.17;0.30;;;12.50;99.90;;;;;;5114404;28;20503;-56
2024/03/29 10:40:08;;;;;;;0.97;0.40;;;12.60;99.90;;;;;;5131556;28;20516;-58
2024/03/29 10:42:37;;;;;;;0.30;0.20;;;12.60;99.90;;;;;;5136866;28;20455;-58
2024/03/29 10:45:07;;;;;;;0.53;0.20;;;12.70;99.90;;;;;;5134341;28;20489;-57
2024/03/29 10:47:35;;;;;;;0.40;0.30;;;12.70;99.90;;;;;;5136738;28;20448;-58
2024/03/29 10:50:05;;;;;;;0.83;0.27;;;12.70;99.90;;;;;;5135480;28;20854;-57
2024/03/29 10:52:32;;;;;;;0.53;0.23;;;12.50;99.90;;;;;;5135760;27;20455;-58
2024/03/29 10:55:01;;;;;;;1.30;0.40;;;12.30;99.90;;;;;;5135623;27;20787;-59
2024/03/29 10:57:28;;;;;;;0.80;0.40;;;12.20;99.90;;;;;;5135667;27;20860;-58
2024/03/29 11:00:05;;;;;;;0.63;0.30;;;12.40;99.90;;;;;;5138099;27;20496;-58
2024/03/29 11:02:38;;;;;;;0.63;0.33;;;12.60;99.90;;;;;;5135513;27;20880;-59
2024/03/29 11:05:10;;;;;;;0.60;0.40;;;12.90;99.90;;;;;;5126071;27;20826;-58
2024/03/29 11:07:42;;;;;;;2.30;0.40;;;13.20;99.90;;;;;;5120480;28;20718;-55
2024/03/29 11:10:16;;;;;;;0.73;0.40;;;13.50;99.90;;;;;;5119999;28;20503;-59
2024/03/29 11:12:55;;;;;;;0.70;0.37;;;13.70;99.90;;;;;;5119391;28;20542;-59
2024/03/29 11:15:29;;;;;;;0.70;0.50;;;13.60;99.90;;;;;;5119167;28;20476;-58
2024/03/29 11:17:57;;;;;;;0.70;0.40;;;13.40;99.90;;;;;;5119682;28;20810;-57
2024/03/29 11:20:33;;;;;;;0.60;0.40;;;13.30;99.90;;;;;;5119003;28;20453;-56
2024/03/29 11:23:09;;;;;;;0.40;0.30;;;13.40;99.90;;;;;;5118146;28;20459;-57
2024/03/29 11:25:45;;;;;;;0.50;0.30;;;13.50;99.90;;;;;;5122753;27;20451;-57
2024/03/29 11:28:15;;;;;;;1.90;0.30;;;13.70;99.90;;;;;;5138553;27;20436;-57
2024/03/29 11:30:44;;;;;;;0.50;0.30;;;13.90;99.90;;;;;;5128903;27;20445;-55
2024/03/29 11:33:29;;;;;;;0.50;0.30;;;14.10;99.90;;;;;;5139322;27;20479;-58
2024/03/29 11:35:56;;;;;;;0.50;0.30;;;14.10;99.90;;;;;;5139812;27;20487;-57
2024/03/29 11:38:29;;;;;;;0.63;0.30;;;13.90;99.90;;;;;;5138092;27;21030;-58
2024/03/29 11:41:05;;;;;;;0.47;0.20;;;14.00;99.90;;;;;;5138609;27;20447;-57
2024/03/29 11:43:33;;;;;;;0.60;0.30;;;14.00;99.90;;;;;;5138785;27;20475;-58
2024/03/29 11:46:01;;;;;;;1.30;0.40;;;14.10;99.90;;;;;;5138951;27;20940;-58
2024/03/29 11:48:30;;;;;;;1.40;0.30;;;14.10;99.90;;;;;;5135575;27;20513;-57
2024/03/29 11:50:58;;;;;;;0.50;0.33;;;14.10;99.90;;;;;;5137289;27;20459;-57
2024/03/29 11:53:27;;;;;;;0.73;0.30;;;14.30;99.90;;;;;;5134864;27;20578;-57
2024/03/29 11:55:54;;;;;;;0.67;0.40;;;14.50;99.90;;;;;;5134226;27;20472;-59
2024/03/29 11:58:24;;;;;;;0.50;0.30;;;14.50;99.90;;;;;;5137961;27;20539;-57
2024/03/29 12:00:51;;;;;;;0.70;0.40;;;14.40;99.90;;;;;;5137459;27;20432;-56
2024/03/29 12:03:19;;;;;;;0.80;0.40;;;14.20;99.90;;;;;;5136806;27;20443;-58
2024/03/29 12:05:48;;;;;;;0.70;0.30;;;14.10;99.90;;;;;;5137174;27;20446;-57
2024/03/29 12:08:15;;;;;;;0.40;0.20;;;14.10;99.90;;;;;;5137677;27;20529;-58
2024/03/29 12:10:42;;;;;;;0.70;0.40;;;14.20;99.90;;;;;;5137369;27;20467;-58
2024/03/29 12:13:10;;;;;;;0.90;0.40;;;14.30;99.90;;;;;;5138281;27;20444;-57
2024/03/29 12:15:38;;;;;;;2.93;0.40;;;14.20;99.90;;;;;;5138538;27;21107;-57
2024/03/29 12:18:06;;;;;;;2.13;0.40;;;14.00;99.90;;;;;;5139218;27;20451;-57
2024/03/29 12:20:34;;;;;;;1.37;0.40;;;14.00;99.90;;;;;;5124072;27;20530;-59
2024/03/29 12:23:02;;;;;;;0.70;0.40;;;14.10;99.90;;;;;;5099416;28;20467;-57
2024/03/29 12:25:29;;;;;;;0.80;0.40;;;14.30;99.90;;;;;;5106915;28;20441;-57
2024/03/29 12:27:57;;;;;;;0.43;0.20;;;14.50;99.90;;;;;;5116225;28;20499;-58
2024/03/29 12:30:24;;;;;;;0.60;0.30;;;14.80;99.90;;;;;;5117837;28;20463;-56
2024/03/29 12:33:03;;;;;;;0.57;0.37;;;15.00;99.90;;;;;;5115092;28;20517;-59
2024/03/29 12:35:31;;;;;;;0.70;0.40;;;15.20;99.90;;;;;;5110610;28;20507;-58
2024/03/29 12:38:00;;;;;;;0.70;0.30;;;15.30;99.90;;;;;;5098316;28;20544;-58
2024/03/29 12:40:29;;;;;;;0.40;0.20;;;15.30;99.90;;;;;;5095432;28;20442;-57
2024/03/29 12:42:58;;;;;;;0.80;0.40;;;15.10;99.90;;;;;;5096497;28;20741;-56
2024/03/29 12:45:26;;;;;;;1.27;0.40;;;15.20;99.90;;;;;;5097157;28;20545;-59
2024/03/29 12:47:54;;;;;;;0.60;0.37;;;15.30;99.90;;;;;;5097446;28;20464;-58
2024/03/29 12:50:27;;;;;;;0.50;0.20;;;15.50;99.90;;;;;;5102036;28;20541;-57
2024/03/29 12:52:57;;;;;;;0.60;0.40;;;15.70;99.90;;;;;;5117664;28;20748;-57
2024/03/29 12:55:24;;;;;;;0.60;0.30;;;16.00;99.90;;;;;;5117201;28;20480;-59
2024/03/29 12:57:53;;;;;;;1.30;0.30;;;16.10;99.90;;;;;;5117197;28;20456;-57
2024/03/29 13:00:20;;;;;;;0.50;0.40;;;16.00;99.90;;;;;;5116834;28;20452;-58
2024/03/29 13:02:48;;;;;;;1.00;0.30;;;15.70;99.90;;;;;;5116649;27;20711;-60
2024/03/29 13:05:15;;;;;;;0.60;0.30;;;15.70;99.90;;;;;;5117184;28;20544;-57
2024/03/29 13:07:44;;;;;;;0.60;0.30;;;15.60;99.90;;;;;;5112587;28;20444;-58
2024/03/29 13:10:13;;;;;;;0.50;0.30;;;15.80;99.90;;;;;;5116299;27;20468;-58
2024/03/29 13:12:42;;;;;;;0.97;0.27;;;16.10;99.90;;;;;;5116144;28;20453;-58
2024/03/29 13:15:18;;;;;;;0.40;0.20;;;16.40;99.90;;;;;;5115964;28;20910;-58
2024/03/29 13:17:46;;;;;;;0.50;0.30;;;16.40;99.90;;;;;;5117826;27;20861;-59
2024/03/29 13:20:15;;;;;;;0.70;0.30;;;16.60;99.90;;;;;;5129837;27;20474;-56
2024/03/29 13:22:45;;;;;;;0.47;0.23;;;16.70;99.90;;;;;;5123945;27;20448;-59
2024/03/29 13:25:13;;;;;;;0.47;0.23;;;16.70;99.90;;;;;;5122057;27;20514;-58
2024/03/29 13:27:41;;;;;;;0.30;0.17;;;16.80;99.90;;;;;;5118523;27;20449;-58
2024/03/29 13:30:10;;;;;;;0.40;0.20;;;16.90;99.90;;;;;;5126127;27;20447;-59
2024/03/29 13:32:38;;;;;;;0.87;0.20;;;16.90;99.90;;;;;;5120046;27;20445;-59
2024/03/29 13:35:06;;;;;;;0.30;0.20;;;16.80;99.90;;;;;;5126480;27;20940;-59
2024/03/29 13:37:33;;;;;;;0.33;0.10;;;16.80;99.90;;;;;;5122050;27;20802;-59
2024/03/29 13:40:03;;;;;;;0.40;0.20;;;16.80;99.90;;;;;;5123697;27;20437;-59
2024/03/29 13:42:30;;;;;;;0.40;0.20;;;16.60;99.90;;;;;;5118163;27;20543;-58
2024/03/29 13:44:57;;;;;;;0.47;0.17;;;16.60;99.90;;;;;;5122288;27;20546;-59
2024/03/29 13:47:24;;;;;;;0.40;0.20;;;16.70;99.90;;;;;;5116264;28;20456;-58
2024/03/29 13:49:52;;;;;;;0.40;0.20;;;16.60;99.90;;;;;;5118254;27;20447;-59
2024/03/29 13:52:20;;;;;;;1.13;0.20;;;16.70;99.90;;;;;;5119785;27;20452;-59
2024/03/29 13:54:47;;;;;;;0.50;0.20;;;16.80;99.90;;;;;;5115922;27;20532;-59
2024/03/29 13:57:16;;;;;;;0.30;0.20;;;17.00;99.90;;;;;;5115803;28;20493;-59
2024/03/29 13:59:44;;;;;;;0.43;0.30;;;17.10;99.90;;;;;;5115970;28;20898;-59
2024/03/29 14:02:13;;;;;;;0.40;0.20;;;17.20;99.90;;;;;;5120038;28;20971;-59
2024/03/29 14:04:40;;;;;;;0.50;0.20;;;17.20;99.90;;;;;;5124597;28;20531;-59
2024/03/29 14:07:08;;;;;;;0.50;0.20;;;17.10;99.90;;;;;;5120796;28;20521;-59
2024/03/29 14:09:35;;;;;;;0.43;0.20;;;17.20;99.90;;;;;;5117937;28;20600;-60
2024/03/29 14:12:03;;;;;;;0.40;0.20;;;17.10;99.90;;;;;;5116877;28;20890;-59
2024/03/29 14:14:31;;;;;;;0.37;0.10;;;16.90;99.90;;;;;;5134491;28;20464;-59
2024/03/29 14:17:03;;;;;;;1.30;0.30;;;16.70;99.90;;;;;;5136741;28;20603;-59
2024/03/29 14:19:30;;;;;;;0.37;0.20;;;16.70;99.90;;;;;;5135103;28;20830;-59
2024/03/29 14:21:57;;;;;;;0.40;0.20;;;16.70;99.90;;;;;;5135418;28;20724;-59
2024/03/29 14:24:24;;;;;;;0.50;0.20;;;16.80;99.90;;;;;;5135397;28;20480;-59
2024/03/29 14:26:51;;;;;;;0.37;0.20;;;16.70;99.90;;;;;;5135747;28;20439;-59
2024/03/29 14:29:21;;;;;;;0.30;0.10;;;16.70;99.90;;;;;;5135463;28;20519;-57
2024/03/29 14:31:49;;;;;;;0.40;0.20;;;16.80;99.90;;;;;;5135584;28;20520;-57
2024/03/29 14:34:16;;;;;;;0.40;0.20;;;16.70;99.90;;;;;;5135851;27;20452;-58
2024/03/29 14:36:42;;;;;;;0.40;0.20;;;16.70;99.90;;;;;;5138477;27;20479;-57
2024/03/29 14:39:12;;;;;;;0.30;0.10;;;16.90;99.90;;;;;;5139908;27;20496;-64
2024/03/29 14:41:40;;;;;;;0.30;0.20;;;16.90;99.90;;;;;;5140029;27;20447;-65
2024/03/29 14:44:07;;;;;;;0.40;0.20;;;17.00;99.90;;;;;;5140482;27;20455;-66
2024/03/29 14:46:34;;;;;;;0.37;0.10;;;16.90;99.90;;;;;;5140863;27;20551;-68